sensor_id;sensor_type;location;lat;lon;timestamp;P1;durP1;ratioP1;P2;durP2;ratioP2
8538;SDS011;4307;53.868;11.680;2023-04-15T00:00:08;45.00;;;21.67;;
8538;SDS011;4307;53.868;11.680;2023-04-15T00:02:36;44.07;;;22.87;;
8538;SDS011;4307;53.868;11.680;2023-04-15T00:05:03;49.33;;;22.97;;
8538;SDS011;4307;53.868;11.680;2023-04-15T00:07:30;44.93;;;23.73;;
8538;SDS011;4307;53.868;11.680;2023-04-15T00:09:59;47.00;;;22.87;;
8538;SDS011;4307;53.868;11.680;2023-04-15T00:12:26;56.47;;;24.73;;
8538;SDS011;4307;53.868;11.680;2023-04-15T00:14:53;49.30;;;24.27;;
8538;SDS011;4307;53.868;11.680;2023-04-15T00:17:21;47.77;;;23.37;;
8538;SDS011;4307;53.868;11.680;2023-04-15T00:19:48;43.73;;;21.87;;
8538;SDS011;4307;53.868;11.680;2023-04-15T00:22:14;49.30;;;22.60;;
8538;SDS011;4307;53.868;11.680;2023-04-15T00:24:41;49.83;;;23.73;;
8538;SDS011;4307;53.868;11.680;2023-04-15T00:27:09;46.43;;;22.47;;
8538;SDS011;4307;53.868;11.680;2023-04-15T00:29:36;48.60;;;21.97;;
8538;SDS011;4307;53.868;11.680;2023-04-15T00:32:03;47.20;;;22.37;;
8538;SDS011;4307;53.868;11.680;2023-04-15T00:34:29;51.70;;;22.13;;
8538;SDS011;4307;53.868;11.680;2023-04-15T00:36:56;49.50;;;22.37;;
8538;SDS011;4307;53.868;11.680;2023-04-15T00:39:23;48.87;;;22.17;;
8538;SDS011;4307;53.868;11.680;2023-04-15T00:41:50;46.93;;;21.90;;
8538;SDS011;4307;53.868;11.680;2023-04-15T00:44:18;40.47;;;20.37;;
8538;SDS011;4307;53.868;11.680;2023-04-15T00:46:45;45.20;;;20.53;;
8538;SDS011;4307;53.868;11.680;2023-04-15T00:49:13;46.07;;;19.83;;
8538;SDS011;4307;53.868;11.680;2023-04-15T00:51:39;41.03;;;18.93;;
8538;SDS011;4307;53.868;11.680;2023-04-15T00:54:06;37.13;;;18.07;;
8538;SDS011;4307;53.868;11.680;2023-04-15T00:56:34;45.80;;;19.80;;
8538;SDS011;4307;53.868;11.680;2023-04-15T00:59:02;42.70;;;19.60;;
8538;SDS011;4307;53.868;11.680;2023-04-15T01:01:32;45.73;;;19.60;;
8538;SDS011;4307;53.868;11.680;2023-04-15T01:04:00;44.77;;;19.43;;
8538;SDS011;4307;53.868;11.680;2023-04-15T01:06:27;46.60;;;20.73;;
8538;SDS011;4307;53.868;11.680;2023-04-15T01:08:54;47.80;;;19.87;;
8538;SDS011;4307;53.868;11.680;2023-04-15T01:11:22;54.00;;;19.43;;
8538;SDS011;4307;53.868;11.680;2023-04-15T01:13:49;53.73;;;21.20;;
8538;SDS011;4307;53.868;11.680;2023-04-15T01:16:17;49.80;;;20.20;;
8538;SDS011;4307;53.868;11.680;2023-04-15T01:18:45;57.93;;;21.67;;
8538;SDS011;4307;53.868;11.680;2023-04-15T01:21:12;49.37;;;20.87;;
8538;SDS011;4307;53.868;11.680;2023-04-15T01:23:38;57.00;;;21.10;;
8538;SDS011;4307;53.868;11.680;2023-04-15T01:26:07;49.13;;;19.77;;
8538;SDS011;4307;53.868;11.680;2023-04-15T01:28:34;57.40;;;20.70;;
8538;SDS011;4307;53.868;11.680;2023-04-15T01:31:08;53.20;;;20.37;;
8538;SDS011;4307;53.868;11.680;2023-04-15T01:33:35;51.73;;;19.07;;
8538;SDS011;4307;53.868;11.680;2023-04-15T01:36:02;46.90;;;19.00;;
8538;SDS011;4307;53.868;11.680;2023-04-15T01:38:30;48.17;;;19.80;;
8538;SDS011;4307;53.868;11.680;2023-04-15T01:40:58;60.07;;;21.27;;
8538;SDS011;4307;53.868;11.680;2023-04-15T01:43:26;48.67;;;19.20;;
8538;SDS011;4307;53.868;11.680;2023-04-15T01:45:53;43.40;;;18.80;;
8538;SDS011;4307;53.868;11.680;2023-04-15T01:48:20;54.47;;;21.07;;
8538;SDS011;4307;53.868;11.680;2023-04-15T01:50:47;48.97;;;19.90;;
8538;SDS011;4307;53.868;11.680;2023-04-15T01:53:14;54.90;;;20.77;;
8538;SDS011;4307;53.868;11.680;2023-04-15T01:55:41;49.03;;;19.80;;
8538;SDS011;4307;53.868;11.680;2023-04-15T01:58:08;40.30;;;18.83;;
8538;SDS011;4307;53.868;11.680;2023-04-15T02:00:36;46.33;;;19.37;;
8538;SDS011;4307;53.868;11.680;2023-04-15T02:03:03;45.73;;;19.83;;
8538;SDS011;4307;53.868;11.680;2023-04-15T02:05:30;43.70;;;19.30;;
8538;SDS011;4307;53.868;11.680;2023-04-15T02:07:57;48.93;;;20.07;;
8538;SDS011;4307;53.868;11.680;2023-04-15T02:10:24;48.17;;;19.73;;
8538;SDS011;4307;53.868;11.680;2023-04-15T02:12:51;47.67;;;18.67;;
8538;SDS011;4307;53.868;11.680;2023-04-15T02:15:18;58.30;;;20.37;;
8538;SDS011;4307;53.868;11.680;2023-04-15T02:17:46;52.03;;;20.27;;
8538;SDS011;4307;53.868;11.680;2023-04-15T02:20:15;53.70;;;20.90;;
8538;SDS011;4307;53.868;11.680;2023-04-15T02:22:42;48.70;;;20.43;;
8538;SDS011;4307;53.868;11.680;2023-04-15T02:25:08;57.33;;;20.40;;
8538;SDS011;4307;53.868;11.680;2023-04-15T02:27:35;52.03;;;19.00;;
8538;SDS011;4307;53.868;11.680;2023-04-15T02:30:02;47.33;;;19.03;;
8538;SDS011;4307;53.868;11.680;2023-04-15T02:32:29;43.87;;;18.43;;
8538;SDS011;4307;53.868;11.680;2023-04-15T02:34:58;58.03;;;20.00;;
8538;SDS011;4307;53.868;11.680;2023-04-15T02:37:28;60.53;;;20.27;;
8538;SDS011;4307;53.868;11.680;2023-04-15T02:39:55;55.20;;;20.97;;
8538;SDS011;4307;53.868;11.680;2023-04-15T02:42:22;55.13;;;19.87;;
8538;SDS011;4307;53.868;11.680;2023-04-15T02:44:51;58.87;;;21.80;;
8538;SDS011;4307;53.868;11.680;2023-04-15T02:47:18;49.77;;;19.63;;
8538;SDS011;4307;53.868;11.680;2023-04-15T02:49:45;52.30;;;19.33;;
8538;SDS011;4307;53.868;11.680;2023-04-15T02:52:13;59.33;;;20.83;;
8538;SDS011;4307;53.868;11.680;2023-04-15T02:54:40;61.30;;;21.60;;
8538;SDS011;4307;53.868;11.680;2023-04-15T02:57:07;47.53;;;19.53;;
8538;SDS011;4307;53.868;11.680;2023-04-15T02:59:35;55.63;;;20.63;;
8538;SDS011;4307;53.868;11.680;2023-04-15T03:02:02;48.97;;;21.13;;
8538;SDS011;4307;53.868;11.680;2023-04-15T03:04:31;52.27;;;21.00;;
8538;SDS011;4307;53.868;11.680;2023-04-15T03:06:59;53.87;;;20.80;;
8538;SDS011;4307;53.868;11.680;2023-04-15T03:09:28;51.03;;;19.63;;
8538;SDS011;4307;53.868;11.680;2023-04-15T03:11:54;49.60;;;19.27;;
8538;SDS011;4307;53.868;11.680;2023-04-15T03:14:21;53.87;;;20.83;;
8538;SDS011;4307;53.868;11.680;2023-04-15T03:16:48;49.70;;;20.50;;
8538;SDS011;4307;53.868;11.680;2023-04-15T03:19:15;46.10;;;21.17;;
8538;SDS011;4307;53.868;11.680;2023-04-15T03:21:42;49.90;;;19.97;;
8538;SDS011;4307;53.868;11.680;2023-04-15T03:24:09;52.30;;;20.63;;
8538;SDS011;4307;53.868;11.680;2023-04-15T03:26:37;52.17;;;20.53;;
8538;SDS011;4307;53.868;11.680;2023-04-15T03:29:03;51.70;;;20.80;;
8538;SDS011;4307;53.868;11.680;2023-04-15T03:31:30;53.03;;;21.40;;
8538;SDS011;4307;53.868;11.680;2023-04-15T03:33:57;53.50;;;21.13;;
8538;SDS011;4307;53.868;11.680;2023-04-15T03:36:23;51.20;;;19.83;;
8538;SDS011;4307;53.868;11.680;2023-04-15T03:38:51;57.80;;;21.40;;
8538;SDS011;4307;53.868;11.680;2023-04-15T03:41:18;56.87;;;20.97;;
8538;SDS011;4307;53.868;11.680;2023-04-15T03:43:45;52.00;;;21.80;;
8538;SDS011;4307;53.868;11.680;2023-04-15T03:46:12;50.37;;;21.47;;
8538;SDS011;4307;53.868;11.680;2023-04-15T03:48:39;55.20;;;21.23;;
8538;SDS011;4307;53.868;11.680;2023-04-15T03:51:06;51.87;;;21.90;;
8538;SDS011;4307;53.868;11.680;2023-04-15T03:53:32;55.07;;;22.63;;
8538;SDS011;4307;53.868;11.680;2023-04-15T03:55:59;52.67;;;21.77;;
8538;SDS011;4307;53.868;11.680;2023-04-15T03:58:26;53.20;;;22.50;;
8538;SDS011;4307;53.868;11.680;2023-04-15T04:00:54;54.13;;;21.30;;
8538;SDS011;4307;53.868;11.680;2023-04-15T04:03:21;56.07;;;21.77;;
8538;SDS011;4307;53.868;11.680;2023-04-15T04:05:47;55.07;;;22.23;;
8538;SDS011;4307;53.868;11.680;2023-04-15T04:08:14;57.00;;;21.97;;
8538;SDS011;4307;53.868;11.680;2023-04-15T04:10:43;47.40;;;21.67;;
8538;SDS011;4307;53.868;11.680;2023-04-15T04:13:10;51.83;;;21.33;;
8538;SDS011;4307;53.868;11.680;2023-04-15T04:15:36;49.47;;;21.90;;
8538;SDS011;4307;53.868;11.680;2023-04-15T04:18:04;55.23;;;22.67;;
8538;SDS011;4307;53.868;11.680;2023-04-15T04:20:31;51.13;;;22.57;;
8538;SDS011;4307;53.868;11.680;2023-04-15T04:22:58;48.60;;;22.50;;
8538;SDS011;4307;53.868;11.680;2023-04-15T04:25:25;45.20;;;21.47;;
8538;SDS011;4307;53.868;11.680;2023-04-15T04:27:52;54.33;;;23.33;;
8538;SDS011;4307;53.868;11.680;2023-04-15T04:30:18;49.13;;;21.47;;
8538;SDS011;4307;53.868;11.680;2023-04-15T04:32:45;48.37;;;21.90;;
8538;SDS011;4307;53.868;11.680;2023-04-15T04:35:13;47.87;;;23.43;;
8538;SDS011;4307;53.868;11.680;2023-04-15T04:37:40;45.70;;;21.90;;
8538;SDS011;4307;53.868;11.680;2023-04-15T04:40:07;53.93;;;23.13;;
8538;SDS011;4307;53.868;11.680;2023-04-15T04:42:34;45.77;;;22.20;;
8538;SDS011;4307;53.868;11.680;2023-04-15T04:45:01;49.33;;;23.47;;
8538;SDS011;4307;53.868;11.680;2023-04-15T04:47:28;56.13;;;22.03;;
8538;SDS011;4307;53.868;11.680;2023-04-15T04:49:54;47.80;;;23.37;;
8538;SDS011;4307;53.868;11.680;2023-04-15T04:52:22;43.77;;;23.03;;
8538;SDS011;4307;53.868;11.680;2023-04-15T04:54:49;47.90;;;23.20;;
8538;SDS011;4307;53.868;11.680;2023-04-15T04:57:15;52.67;;;23.73;;
8538;SDS011;4307;53.868;11.680;2023-04-15T04:59:42;48.13;;;23.97;;
8538;SDS011;4307;53.868;11.680;2023-04-15T05:02:09;48.03;;;23.33;;
8538;SDS011;4307;53.868;11.680;2023-04-15T05:04:36;48.17;;;23.43;;
8538;SDS011;4307;53.868;11.680;2023-04-15T05:07:02;50.63;;;24.90;;
8538;SDS011;4307;53.868;11.680;2023-04-15T05:09:30;50.60;;;24.53;;
8538;SDS011;4307;53.868;11.680;2023-04-15T05:12:00;52.30;;;23.97;;
8538;SDS011;4307;53.868;11.680;2023-04-15T05:14:26;53.43;;;23.80;;
8538;SDS011;4307;53.868;11.680;2023-04-15T05:16:53;52.03;;;25.10;;
8538;SDS011;4307;53.868;11.680;2023-04-15T05:19:20;54.97;;;26.03;;
8538;SDS011;4307;53.868;11.680;2023-04-15T05:21:46;48.70;;;25.43;;
8538;SDS011;4307;53.868;11.680;2023-04-15T05:24:13;50.47;;;26.87;;
8538;SDS011;4307;53.868;11.680;2023-04-15T05:26:41;50.10;;;25.77;;
8538;SDS011;4307;53.868;11.680;2023-04-15T05:29:08;52.80;;;25.57;;
8538;SDS011;4307;53.868;11.680;2023-04-15T05:31:35;49.63;;;26.33;;
8538;SDS011;4307;53.868;11.680;2023-04-15T05:34:02;55.27;;;26.70;;
8538;SDS011;4307;53.868;11.680;2023-04-15T05:36:29;50.77;;;25.57;;
8538;SDS011;4307;53.868;11.680;2023-04-15T05:38:56;54.17;;;27.40;;
8538;SDS011;4307;53.868;11.680;2023-04-15T05:41:23;54.13;;;25.90;;
8538;SDS011;4307;53.868;11.680;2023-04-15T05:43:51;51.73;;;25.03;;
8538;SDS011;4307;53.868;11.680;2023-04-15T05:46:17;52.37;;;25.83;;
8538;SDS011;4307;53.868;11.680;2023-04-15T05:48:44;48.10;;;25.80;;
8538;SDS011;4307;53.868;11.680;2023-04-15T05:51:11;47.37;;;26.87;;
8538;SDS011;4307;53.868;11.680;2023-04-15T05:53:38;53.03;;;25.50;;
8538;SDS011;4307;53.868;11.680;2023-04-15T05:56:05;46.90;;;25.47;;
8538;SDS011;4307;53.868;11.680;2023-04-15T05:58:32;49.30;;;24.57;;
8538;SDS011;4307;53.868;11.680;2023-04-15T06:01:00;48.47;;;26.07;;
8538;SDS011;4307;53.868;11.680;2023-04-15T06:03:27;46.20;;;24.60;;
8538;SDS011;4307;53.868;11.680;2023-04-15T06:05:54;55.33;;;26.20;;
8538;SDS011;4307;53.868;11.680;2023-04-15T06:08:21;48.80;;;24.43;;
8538;SDS011;4307;53.868;11.680;2023-04-15T06:10:47;44.27;;;25.30;;
8538;SDS011;4307;53.868;11.680;2023-04-15T06:13:14;44.90;;;24.90;;
8538;SDS011;4307;53.868;11.680;2023-04-15T06:15:41;42.27;;;24.60;;
8538;SDS011;4307;53.868;11.680;2023-04-15T06:18:09;43.10;;;24.40;;
8538;SDS011;4307;53.868;11.680;2023-04-15T06:20:37;42.27;;;24.67;;
8538;SDS011;4307;53.868;11.680;2023-04-15T06:23:03;40.43;;;23.47;;
8538;SDS011;4307;53.868;11.680;2023-04-15T06:25:30;40.60;;;22.67;;
8538;SDS011;4307;53.868;11.680;2023-04-15T06:27:57;42.87;;;23.97;;
8538;SDS011;4307;53.868;11.680;2023-04-15T06:30:24;36.73;;;22.70;;
8538;SDS011;4307;53.868;11.680;2023-04-15T06:32:50;42.97;;;24.73;;
8538;SDS011;4307;53.868;11.680;2023-04-15T06:35:18;40.03;;;24.03;;
8538;SDS011;4307;53.868;11.680;2023-04-15T06:37:46;38.23;;;23.87;;
8538;SDS011;4307;53.868;11.680;2023-04-15T06:40:12;35.73;;;21.90;;
8538;SDS011;4307;53.868;11.680;2023-04-15T06:42:39;37.03;;;22.50;;
8538;SDS011;4307;53.868;11.680;2023-04-15T06:45:06;37.03;;;23.30;;
8538;SDS011;4307;53.868;11.680;2023-04-15T06:47:34;34.13;;;20.83;;
8538;SDS011;4307;53.868;11.680;2023-04-15T06:50:00;32.50;;;21.50;;
8538;SDS011;4307;53.868;11.680;2023-04-15T06:52:29;32.93;;;21.97;;
8538;SDS011;4307;53.868;11.680;2023-04-15T06:54:56;32.40;;;20.33;;
8538;SDS011;4307;53.868;11.680;2023-04-15T06:57:23;34.03;;;20.47;;
8538;SDS011;4307;53.868;11.680;2023-04-15T06:59:50;29.13;;;18.10;;
8538;SDS011;4307;53.868;11.680;2023-04-15T07:02:18;26.77;;;18.93;;
8538;SDS011;4307;53.868;11.680;2023-04-15T07:04:45;29.90;;;18.83;;
8538;SDS011;4307;53.868;11.680;2023-04-15T07:07:12;26.27;;;19.10;;
8538;SDS011;4307;53.868;11.680;2023-04-15T07:09:42;28.37;;;18.03;;
8538;SDS011;4307;53.868;11.680;2023-04-15T07:12:09;25.20;;;17.33;;
8538;SDS011;4307;53.868;11.680;2023-04-15T07:14:36;23.03;;;16.07;;
8538;SDS011;4307;53.868;11.680;2023-04-15T07:17:02;26.30;;;16.70;;
8538;SDS011;4307;53.868;11.680;2023-04-15T07:19:29;21.63;;;15.73;;
8538;SDS011;4307;53.868;11.680;2023-04-15T07:21:56;20.93;;;15.47;;
8538;SDS011;4307;53.868;11.680;2023-04-15T07:24:22;23.07;;;16.17;;
8538;SDS011;4307;53.868;11.680;2023-04-15T07:26:52;22.70;;;15.87;;
8538;SDS011;4307;53.868;11.680;2023-04-15T07:29:18;24.47;;;15.33;;
8538;SDS011;4307;53.868;11.680;2023-04-15T07:31:45;20.23;;;14.97;;
8538;SDS011;4307;53.868;11.680;2023-04-15T07:34:12;18.93;;;14.13;;
8538;SDS011;4307;53.868;11.680;2023-04-15T07:36:39;21.73;;;15.13;;
8538;SDS011;4307;53.868;11.680;2023-04-15T07:39:05;20.50;;;14.80;;
8538;SDS011;4307;53.868;11.680;2023-04-15T07:41:32;17.70;;;13.23;;
8538;SDS011;4307;53.868;11.680;2023-04-15T07:44:00;21.13;;;14.03;;
8538;SDS011;4307;53.868;11.680;2023-04-15T07:46:27;20.03;;;13.90;;
8538;SDS011;4307;53.868;11.680;2023-04-15T07:48:53;18.53;;;13.43;;
8538;SDS011;4307;53.868;11.680;2023-04-15T07:51:20;21.57;;;13.00;;
8538;SDS011;4307;53.868;11.680;2023-04-15T07:53:47;18.73;;;13.60;;
8538;SDS011;4307;53.868;11.680;2023-04-15T07:56:14;18.30;;;13.60;;
8538;SDS011;4307;53.868;11.680;2023-04-15T07:58:41;16.37;;;12.40;;
8538;SDS011;4307;53.868;11.680;2023-04-15T08:01:09;18.47;;;13.20;;
8538;SDS011;4307;53.868;11.680;2023-04-15T08:03:36;16.73;;;13.43;;
8538;SDS011;4307;53.868;11.680;2023-04-15T08:06:03;17.90;;;12.20;;
8538;SDS011;4307;53.868;11.680;2023-04-15T08:08:30;14.60;;;11.03;;
8538;SDS011;4307;53.868;11.680;2023-04-15T08:10:57;14.37;;;10.93;;
8538;SDS011;4307;53.868;11.680;2023-04-15T08:13:24;18.17;;;11.43;;
8538;SDS011;4307;53.868;11.680;2023-04-15T08:15:52;13.47;;;11.80;;
8538;SDS011;4307;53.868;11.680;2023-04-15T08:18:40;13.77;;;11.13;;
8538;SDS011;4307;53.868;11.680;2023-04-15T08:21:06;16.30;;;10.90;;
8538;SDS011;4307;53.868;11.680;2023-04-15T08:23:33;13.40;;;10.53;;
8538;SDS011;4307;53.868;11.680;2023-04-15T08:26:00;17.20;;;10.53;;
8538;SDS011;4307;53.868;11.680;2023-04-15T08:28:26;13.33;;;10.07;;
8538;SDS011;4307;53.868;11.680;2023-04-15T08:30:53;11.97;;;10.20;;
8538;SDS011;4307;53.868;11.680;2023-04-15T08:33:20;16.50;;;11.03;;
8538;SDS011;4307;53.868;11.680;2023-04-15T08:35:48;13.00;;;10.37;;
8538;SDS011;4307;53.868;11.680;2023-04-15T08:38:15;16.40;;;11.97;;
8538;SDS011;4307;53.868;11.680;2023-04-15T08:40:43;14.47;;;10.27;;
8538;SDS011;4307;53.868;11.680;2023-04-15T08:43:12;12.23;;;10.60;;
8538;SDS011;4307;53.868;11.680;2023-04-15T08:45:44;13.60;;;10.50;;
8538;SDS011;4307;53.868;11.680;2023-04-15T08:48:12;13.47;;;10.50;;
8538;SDS011;4307;53.868;11.680;2023-04-15T08:50:41;13.20;;;10.37;;
8538;SDS011;4307;53.868;11.680;2023-04-15T08:53:10;15.00;;;11.30;;
8538;SDS011;4307;53.868;11.680;2023-04-15T08:55:38;13.67;;;10.23;;
8538;SDS011;4307;53.868;11.680;2023-04-15T08:58:09;13.77;;;10.07;;
8538;SDS011;4307;53.868;11.680;2023-04-15T09:00:36;12.40;;;9.77;;
8538;SDS011;4307;53.868;11.680;2023-04-15T09:03:03;13.43;;;10.17;;
8538;SDS011;4307;53.868;11.680;2023-04-15T09:05:30;13.13;;;10.30;;
8538;SDS011;4307;53.868;11.680;2023-04-15T09:07:57;14.07;;;9.33;;
8538;SDS011;4307;53.868;11.680;2023-04-15T09:10:25;13.43;;;9.90;;
8538;SDS011;4307;53.868;11.680;2023-04-15T09:12:52;11.40;;;9.90;;
8538;SDS011;4307;53.868;11.680;2023-04-15T09:15:19;10.73;;;8.63;;
8538;SDS011;4307;53.868;11.680;2023-04-15T09:17:47;11.27;;;9.43;;
8538;SDS011;4307;53.868;11.680;2023-04-15T09:20:14;14.43;;;9.50;;
8538;SDS011;4307;53.868;11.680;2023-04-15T09:22:44;12.03;;;8.80;;
8538;SDS011;4307;53.868;11.680;2023-04-15T09:25:26;9.80;;;8.20;;
8538;SDS011;4307;53.868;11.680;2023-04-15T09:27:54;9.43;;;7.80;;
8538;SDS011;4307;53.868;11.680;2023-04-15T09:30:24;11.77;;;8.50;;
8538;SDS011;4307;53.868;11.680;2023-04-15T09:32:51;8.93;;;7.73;;
8538;SDS011;4307;53.868;11.680;2023-04-15T09:35:18;9.67;;;8.17;;
8538;SDS011;4307;53.868;11.680;2023-04-15T09:37:46;13.10;;;8.53;;
8538;SDS011;4307;53.868;11.680;2023-04-15T09:40:13;10.07;;;8.27;;
8538;SDS011;4307;53.868;11.680;2023-04-15T09:42:54;9.53;;;8.50;;
8538;SDS011;4307;53.868;11.680;2023-04-15T09:45:21;10.33;;;8.30;;
8538;SDS011;4307;53.868;11.680;2023-04-15T09:47:49;9.53;;;7.97;;
8538;SDS011;4307;53.868;11.680;2023-04-15T09:50:17;9.53;;;6.90;;
8538;SDS011;4307;53.868;11.680;2023-04-15T09:52:44;8.33;;;7.07;;
8538;SDS011;4307;53.868;11.680;2023-04-15T09:55:12;8.57;;;7.30;;
8538;SDS011;4307;53.868;11.680;2023-04-15T09:57:44;8.47;;;7.20;;
8538;SDS011;4307;53.868;11.680;2023-04-15T10:00:14;8.73;;;7.30;;
8538;SDS011;4307;53.868;11.680;2023-04-15T10:02:41;9.20;;;7.13;;
8538;SDS011;4307;53.868;11.680;2023-04-15T10:05:09;11.03;;;8.00;;
8538;SDS011;4307;53.868;11.680;2023-04-15T10:07:37;7.30;;;6.50;;
8538;SDS011;4307;53.868;11.680;2023-04-15T10:10:05;8.63;;;6.40;;
8538;SDS011;4307;53.868;11.680;2023-04-15T10:12:33;7.80;;;6.63;;
8538;SDS011;4307;53.868;11.680;2023-04-15T10:15:03;9.93;;;7.50;;
8538;SDS011;4307;53.868;11.680;2023-04-15T10:17:32;10.00;;;7.67;;
8538;SDS011;4307;53.868;11.680;2023-04-15T10:20:01;10.03;;;8.17;;
8538;SDS011;4307;53.868;11.680;2023-04-15T10:22:29;8.97;;;7.57;;
8538;SDS011;4307;53.868;11.680;2023-04-15T10:24:56;9.20;;;7.53;;
8538;SDS011;4307;53.868;11.680;2023-04-15T10:27:24;10.90;;;7.67;;
8538;SDS011;4307;53.868;11.680;2023-04-15T10:29:52;10.80;;;8.00;;
8538;SDS011;4307;53.868;11.680;2023-04-15T10:32:19;9.63;;;7.63;;
8538;SDS011;4307;53.868;11.680;2023-04-15T10:34:48;7.30;;;5.97;;
8538;SDS011;4307;53.868;11.680;2023-04-15T10:37:19;8.40;;;7.10;;
8538;SDS011;4307;53.868;11.680;2023-04-15T10:39:47;8.10;;;7.23;;
8538;SDS011;4307;53.868;11.680;2023-04-15T10:42:15;9.23;;;7.30;;
8538;SDS011;4307;53.868;11.680;2023-04-15T10:44:43;9.13;;;7.43;;
8538;SDS011;4307;53.868;11.680;2023-04-15T10:47:14;9.33;;;7.47;;
8538;SDS011;4307;53.868;11.680;2023-04-15T10:49:44;7.27;;;6.57;;
8538;SDS011;4307;53.868;11.680;2023-04-15T10:52:14;10.00;;;7.00;;
8538;SDS011;4307;53.868;11.680;2023-04-15T10:54:42;9.67;;;7.00;;
8538;SDS011;4307;53.868;11.680;2023-04-15T10:57:13;7.60;;;6.80;;
8538;SDS011;4307;53.868;11.680;2023-04-15T11:02:43;9.60;;;7.50;;
8538;SDS011;4307;53.868;11.680;2023-04-15T11:05:12;8.03;;;6.80;;
8538;SDS011;4307;53.868;11.680;2023-04-15T11:07:46;7.53;;;5.90;;
8538;SDS011;4307;53.868;11.680;2023-04-15T11:13:27;7.80;;;6.70;;
8538;SDS011;4307;53.868;11.680;2023-04-15T11:15:59;8.57;;;6.30;;
8538;SDS011;4307;53.868;11.680;2023-04-15T11:18:31;7.73;;;6.30;;
8538;SDS011;4307;53.868;11.680;2023-04-15T11:21:00;8.33;;;6.53;;
8538;SDS011;4307;53.868;11.680;2023-04-15T11:23:31;13.27;;;7.00;;
8538;SDS011;4307;53.868;11.680;2023-04-15T11:26:00;10.03;;;7.80;;
8538;SDS011;4307;53.868;11.680;2023-04-15T11:28:28;14.47;;;11.33;;
8538;SDS011;4307;53.868;11.680;2023-04-15T11:30:56;17.40;;;11.03;;
8538;SDS011;4307;53.868;11.680;2023-04-15T11:33:23;15.03;;;11.57;;
8538;SDS011;4307;53.868;11.680;2023-04-15T11:35:51;14.80;;;11.13;;
8538;SDS011;4307;53.868;11.680;2023-04-15T11:38:19;13.93;;;10.67;;
8538;SDS011;4307;53.868;11.680;2023-04-15T11:40:48;14.90;;;9.47;;
8538;SDS011;4307;53.868;11.680;2023-04-15T11:43:17;10.47;;;9.10;;
8538;SDS011;4307;53.868;11.680;2023-04-15T11:45:52;12.90;;;9.70;;
8538;SDS011;4307;53.868;11.680;2023-04-15T11:48:21;11.83;;;9.50;;
8538;SDS011;4307;53.868;11.680;2023-04-15T11:50:52;13.23;;;9.57;;
8538;SDS011;4307;53.868;11.680;2023-04-15T11:53:20;14.63;;;9.97;;
8538;SDS011;4307;53.868;11.680;2023-04-15T11:55:49;18.40;;;13.50;;
8538;SDS011;4307;53.868;11.680;2023-04-15T11:58:18;20.63;;;14.50;;
8538;SDS011;4307;53.868;11.680;2023-04-15T12:00:47;19.23;;;14.87;;
8538;SDS011;4307;53.868;11.680;2023-04-15T12:03:18;21.20;;;14.43;;
8538;SDS011;4307;53.868;11.680;2023-04-15T12:06:07;20.73;;;14.53;;
8538;SDS011;4307;53.868;11.680;2023-04-15T12:11:39;19.47;;;14.07;;
8538;SDS011;4307;53.868;11.680;2023-04-15T12:14:08;20.57;;;14.70;;
8538;SDS011;4307;53.868;11.680;2023-04-15T12:16:38;21.53;;;15.90;;
8538;SDS011;4307;53.868;11.680;2023-04-15T12:19:06;21.70;;;15.47;;
8538;SDS011;4307;53.868;11.680;2023-04-15T12:21:36;23.30;;;16.60;;
8538;SDS011;4307;53.868;11.680;2023-04-15T12:24:04;22.53;;;15.93;;
8538;SDS011;4307;53.868;11.680;2023-04-15T12:26:34;19.97;;;15.57;;
8538;SDS011;4307;53.868;11.680;2023-04-15T12:29:04;19.20;;;14.07;;
8538;SDS011;4307;53.868;11.680;2023-04-15T12:31:32;21.80;;;14.67;;
8538;SDS011;4307;53.868;11.680;2023-04-15T12:33:59;18.47;;;13.40;;
8538;SDS011;4307;53.868;11.680;2023-04-15T12:36:26;18.13;;;14.10;;
8538;SDS011;4307;53.868;11.680;2023-04-15T12:38:54;19.90;;;13.90;;
8538;SDS011;4307;53.868;11.680;2023-04-15T12:41:21;17.17;;;13.90;;
8538;SDS011;4307;53.868;11.680;2023-04-15T12:43:48;18.50;;;14.67;;
8538;SDS011;4307;53.868;11.680;2023-04-15T12:46:16;16.57;;;13.40;;
8538;SDS011;4307;53.868;11.680;2023-04-15T12:48:44;21.83;;;13.57;;
8538;SDS011;4307;53.868;11.680;2023-04-15T12:51:10;15.70;;;12.77;;
8538;SDS011;4307;53.868;11.680;2023-04-15T12:53:37;19.47;;;13.10;;
8538;SDS011;4307;53.868;11.680;2023-04-15T12:56:04;20.20;;;12.73;;
8538;SDS011;4307;53.868;11.680;2023-04-15T12:58:31;15.17;;;12.00;;
8538;SDS011;4307;53.868;11.680;2023-04-15T13:00:58;16.53;;;11.50;;
8538;SDS011;4307;53.868;11.680;2023-04-15T13:03:26;16.80;;;11.67;;
8538;SDS011;4307;53.868;11.680;2023-04-15T13:05:53;15.43;;;12.37;;
8538;SDS011;4307;53.868;11.680;2023-04-15T13:08:19;20.40;;;12.67;;
8538;SDS011;4307;53.868;11.680;2023-04-15T13:10:46;16.33;;;12.70;;
8538;SDS011;4307;53.868;11.680;2023-04-15T13:13:13;15.33;;;12.43;;
8538;SDS011;4307;53.868;11.680;2023-04-15T13:15:40;15.33;;;10.47;;
8538;SDS011;4307;53.868;11.680;2023-04-15T13:18:09;14.07;;;10.97;;
8538;SDS011;4307;53.868;11.680;2023-04-15T13:20:37;17.03;;;11.57;;
8538;SDS011;4307;53.868;11.680;2023-04-15T13:23:04;13.77;;;10.17;;
8538;SDS011;4307;53.868;11.680;2023-04-15T13:25:31;14.83;;;10.80;;
8538;SDS011;4307;53.868;11.680;2023-04-15T13:27:58;14.17;;;10.07;;
8538;SDS011;4307;53.868;11.680;2023-04-15T13:30:25;11.90;;;8.73;;
8538;SDS011;4307;53.868;11.680;2023-04-15T13:32:52;11.77;;;9.37;;
8538;SDS011;4307;53.868;11.680;2023-04-15T13:35:19;13.90;;;10.37;;
8538;SDS011;4307;53.868;11.680;2023-04-15T13:37:47;11.70;;;10.00;;
8538;SDS011;4307;53.868;11.680;2023-04-15T13:40:13;11.30;;;9.30;;
8538;SDS011;4307;53.868;11.680;2023-04-15T13:42:40;13.00;;;9.97;;
8538;SDS011;4307;53.868;11.680;2023-04-15T13:45:07;14.03;;;10.70;;
8538;SDS011;4307;53.868;11.680;2023-04-15T13:47:35;11.00;;;9.47;;
8538;SDS011;4307;53.868;11.680;2023-04-15T13:50:02;11.20;;;9.53;;
8538;SDS011;4307;53.868;11.680;2023-04-15T13:52:28;11.47;;;9.83;;
8538;SDS011;4307;53.868;11.680;2023-04-15T13:54:56;15.20;;;10.10;;
8538;SDS011;4307;53.868;11.680;2023-04-15T13:57:24;14.03;;;10.17;;
8538;SDS011;4307;53.868;11.680;2023-04-15T13:59:50;16.17;;;10.63;;
8538;SDS011;4307;53.868;11.680;2023-04-15T14:02:19;15.43;;;11.77;;
8538;SDS011;4307;53.868;11.680;2023-04-15T14:04:47;14.50;;;11.27;;
8538;SDS011;4307;53.868;11.680;2023-04-15T14:07:13;16.40;;;11.97;;
8538;SDS011;4307;53.868;11.680;2023-04-15T14:09:40;17.27;;;12.77;;
8538;SDS011;4307;53.868;11.680;2023-04-15T14:12:09;13.63;;;10.80;;
8538;SDS011;4307;53.868;11.680;2023-04-15T14:14:36;15.00;;;11.97;;
8538;SDS011;4307;53.868;11.680;2023-04-15T14:17:02;16.87;;;13.27;;
8538;SDS011;4307;53.868;11.680;2023-04-15T14:19:29;15.27;;;12.27;;
8538;SDS011;4307;53.868;11.680;2023-04-15T14:21:56;14.73;;;12.27;;
8538;SDS011;4307;53.868;11.680;2023-04-15T14:24:23;14.17;;;12.10;;
8538;SDS011;4307;53.868;11.680;2023-04-15T14:26:50;17.77;;;13.30;;
8538;SDS011;4307;53.868;11.680;2023-04-15T14:29:18;14.87;;;12.60;;
8538;SDS011;4307;53.868;11.680;2023-04-15T14:31:44;18.00;;;13.27;;
8538;SDS011;4307;53.868;11.680;2023-04-15T14:34:12;19.57;;;12.47;;
8538;SDS011;4307;53.868;11.680;2023-04-15T14:36:39;16.87;;;13.00;;
8538;SDS011;4307;53.868;11.680;2023-04-15T14:39:06;18.73;;;12.77;;
8538;SDS011;4307;53.868;11.680;2023-04-15T14:41:33;15.30;;;12.67;;
8538;SDS011;4307;53.868;11.680;2023-04-15T14:44:00;16.77;;;13.93;;
8538;SDS011;4307;53.868;11.680;2023-04-15T14:46:28;18.83;;;13.13;;
8538;SDS011;4307;53.868;11.680;2023-04-15T14:48:55;19.23;;;14.07;;